sensor_id;sensor_type;location;lat;lon;timestamp;P1;durP1;ratioP1;P2;durP2;ratioP2
4650;SDS011;2338;49.602;8.722;2022-07-29T00:01:28;10.00;;;2.50;;
4650;SDS011;2338;49.602;8.722;2022-07-29T00:04:15;7.17;;;2.27;;
4650;SDS011;2338;49.602;8.722;2022-07-29T00:07:02;8.90;;;2.70;;
4650;SDS011;2338;49.602;8.722;2022-07-29T00:09:48;6.10;;;2.87;;
4650;SDS011;2338;49.602;8.722;2022-07-29T00:12:33;2.60;;;1.90;;
4650;SDS011;2338;49.602;8.722;2022-07-29T00:15:19;6.30;;;3.07;;
4650;SDS011;2338;49.602;8.722;2022-07-29T00:18:05;4.53;;;2.77;;
4650;SDS011;2338;49.602;8.722;2022-07-29T00:20:50;17.00;;;3.47;;
4650;SDS011;2338;49.602;8.722;2022-07-29T00:23:37;3.20;;;2.20;;
4650;SDS011;2338;49.602;8.722;2022-07-29T00:26:23;6.20;;;2.30;;
4650;SDS011;2338;49.602;8.722;2022-07-29T00:29:11;3.90;;;2.70;;
4650;SDS011;2338;49.602;8.722;2022-07-29T00:31:56;5.73;;;2.50;;
4650;SDS011;2338;49.602;8.722;2022-07-29T00:34:42;4.00;;;2.20;;
4650;SDS011;2338;49.602;8.722;2022-07-29T00:37:46;3.90;;;2.53;;
4650;SDS011;2338;49.602;8.722;2022-07-29T00:40:33;12.53;;;2.70;;
4650;SDS011;2338;49.602;8.722;2022-07-29T00:43:19;4.47;;;2.43;;
4650;SDS011;2338;49.602;8.722;2022-07-29T00:46:04;6.70;;;2.63;;
4650;SDS011;2338;49.602;8.722;2022-07-29T00:48:50;17.17;;;2.37;;
4650;SDS011;2338;49.602;8.722;2022-07-29T00:51:36;4.70;;;2.80;;
4650;SDS011;2338;49.602;8.722;2022-07-29T00:54:22;5.70;;;2.83;;
4650;SDS011;2338;49.602;8.722;2022-07-29T00:57:10;3.13;;;1.93;;
4650;SDS011;2338;49.602;8.722;2022-07-29T00:59:57;8.00;;;2.93;;
4650;SDS011;2338;49.602;8.722;2022-07-29T01:02:42;3.83;;;2.47;;
4650;SDS011;2338;49.602;8.722;2022-07-29T01:05:28;8.53;;;2.73;;
4650;SDS011;2338;49.602;8.722;2022-07-29T01:08:15;4.93;;;2.73;;
4650;SDS011;2338;49.602;8.722;2022-07-29T01:11:01;3.57;;;2.53;;
4650;SDS011;2338;49.602;8.722;2022-07-29T01:13:49;5.90;;;2.57;;
4650;SDS011;2338;49.602;8.722;2022-07-29T01:16:35;3.83;;;2.80;;
4650;SDS011;2338;49.602;8.722;2022-07-29T01:19:33;3.97;;;2.40;;
4650;SDS011;2338;49.602;8.722;2022-07-29T01:22:53;4.27;;;2.60;;
4650;SDS011;2338;49.602;8.722;2022-07-29T01:29:12;5.70;;;2.43;;
4650;SDS011;2338;49.602;8.722;2022-07-29T01:32:08;7.40;;;2.60;;
4650;SDS011;2338;49.602;8.722;2022-07-29T01:34:58;5.57;;;2.60;;
4650;SDS011;2338;49.602;8.722;2022-07-29T01:37:48;3.00;;;2.53;;
4650;SDS011;2338;49.602;8.722;2022-07-29T01:40:40;3.83;;;2.40;;
4650;SDS011;2338;49.602;8.722;2022-07-29T01:43:31;4.97;;;2.70;;
4650;SDS011;2338;49.602;8.722;2022-07-29T01:46:23;6.90;;;2.43;;
4650;SDS011;2338;49.602;8.722;2022-07-29T01:49:13;7.07;;;2.67;;
4650;SDS011;2338;49.602;8.722;2022-07-29T01:52:03;3.90;;;2.90;;
4650;SDS011;2338;49.602;8.722;2022-07-29T01:54:55;4.47;;;2.90;;
4650;SDS011;2338;49.602;8.722;2022-07-29T01:57:44;6.67;;;3.50;;
4650;SDS011;2338;49.602;8.722;2022-07-29T02:00:32;5.87;;;3.23;;
4650;SDS011;2338;49.602;8.722;2022-07-29T02:03:21;7.90;;;3.10;;
4650;SDS011;2338;49.602;8.722;2022-07-29T02:06:08;4.17;;;2.70;;
4650;SDS011;2338;49.602;8.722;2022-07-29T02:08:55;6.53;;;2.77;;
4650;SDS011;2338;49.602;8.722;2022-07-29T02:11:45;9.57;;;3.00;;
4650;SDS011;2338;49.602;8.722;2022-07-29T02:14:36;6.10;;;3.00;;
4650;SDS011;2338;49.602;8.722;2022-07-29T02:17:25;4.37;;;2.90;;
4650;SDS011;2338;49.602;8.722;2022-07-29T02:20:15;4.27;;;2.60;;
4650;SDS011;2338;49.602;8.722;2022-07-29T02:23:01;6.60;;;3.43;;
4650;SDS011;2338;49.602;8.722;2022-07-29T02:25:48;4.73;;;3.00;;
4650;SDS011;2338;49.602;8.722;2022-07-29T02:28:36;6.20;;;2.80;;
4650;SDS011;2338;49.602;8.722;2022-07-29T02:31:22;4.20;;;2.77;;
4650;SDS011;2338;49.602;8.722;2022-07-29T02:34:10;4.60;;;3.33;;
4650;SDS011;2338;49.602;8.722;2022-07-29T02:36:57;5.47;;;2.77;;
4650;SDS011;2338;49.602;8.722;2022-07-29T02:39:44;7.70;;;3.13;;
4650;SDS011;2338;49.602;8.722;2022-07-29T02:42:32;5.80;;;3.00;;
4650;SDS011;2338;49.602;8.722;2022-07-29T02:45:21;5.20;;;2.87;;
4650;SDS011;2338;49.602;8.722;2022-07-29T02:48:09;5.03;;;2.80;;
4650;SDS011;2338;49.602;8.722;2022-07-29T02:50:59;7.50;;;3.07;;
4650;SDS011;2338;49.602;8.722;2022-07-29T02:53:53;5.40;;;3.60;;
4650;SDS011;2338;49.602;8.722;2022-07-29T02:56:42;4.37;;;3.23;;
4650;SDS011;2338;49.602;8.722;2022-07-29T02:59:30;10.40;;;3.03;;
4650;SDS011;2338;49.602;8.722;2022-07-29T03:02:21;4.00;;;2.93;;
4650;SDS011;2338;49.602;8.722;2022-07-29T03:05:08;8.13;;;3.03;;
4650;SDS011;2338;49.602;8.722;2022-07-29T03:07:57;4.60;;;3.47;;
4650;SDS011;2338;49.602;8.722;2022-07-29T03:10:46;7.37;;;3.43;;
4650;SDS011;2338;49.602;8.722;2022-07-29T03:13:32;6.30;;;3.07;;
4650;SDS011;2338;49.602;8.722;2022-07-29T03:16:19;5.20;;;3.20;;
4650;SDS011;2338;49.602;8.722;2022-07-29T03:19:07;5.40;;;2.77;;
4650;SDS011;2338;49.602;8.722;2022-07-29T03:21:53;9.77;;;3.30;;
4650;SDS011;2338;49.602;8.722;2022-07-29T03:24:41;10.27;;;3.07;;
4650;SDS011;2338;49.602;8.722;2022-07-29T03:27:28;7.80;;;2.80;;
4650;SDS011;2338;49.602;8.722;2022-07-29T03:30:14;12.90;;;3.10;;
4650;SDS011;2338;49.602;8.722;2022-07-29T03:33:00;6.40;;;3.47;;
4650;SDS011;2338;49.602;8.722;2022-07-29T03:35:46;5.03;;;2.50;;
4650;SDS011;2338;49.602;8.722;2022-07-29T03:38:32;6.70;;;3.30;;
4650;SDS011;2338;49.602;8.722;2022-07-29T03:41:19;4.00;;;2.70;;
4650;SDS011;2338;49.602;8.722;2022-07-29T03:44:10;5.90;;;3.37;;
4650;SDS011;2338;49.602;8.722;2022-07-29T03:46:57;5.00;;;3.10;;
4650;SDS011;2338;49.602;8.722;2022-07-29T03:49:46;5.97;;;2.83;;
4650;SDS011;2338;49.602;8.722;2022-07-29T03:52:35;6.77;;;3.80;;
4650;SDS011;2338;49.602;8.722;2022-07-29T03:55:21;8.93;;;3.30;;
4650;SDS011;2338;49.602;8.722;2022-07-29T03:58:07;7.23;;;2.93;;
4650;SDS011;2338;49.602;8.722;2022-07-29T04:00:55;4.27;;;3.07;;
4650;SDS011;2338;49.602;8.722;2022-07-29T04:03:41;4.80;;;2.90;;
4650;SDS011;2338;49.602;8.722;2022-07-29T04:06:29;7.27;;;3.03;;
4650;SDS011;2338;49.602;8.722;2022-07-29T04:09:22;4.07;;;3.47;;
4650;SDS011;2338;49.602;8.722;2022-07-29T04:12:08;7.80;;;3.20;;
4650;SDS011;2338;49.602;8.722;2022-07-29T04:14:54;8.40;;;3.27;;
4650;SDS011;2338;49.602;8.722;2022-07-29T04:17:41;7.77;;;2.90;;
4650;SDS011;2338;49.602;8.722;2022-07-29T04:20:27;6.30;;;3.00;;
4650;SDS011;2338;49.602;8.722;2022-07-29T04:23:12;5.60;;;3.00;;
4650;SDS011;2338;49.602;8.722;2022-07-29T04:25:58;20.60;;;3.50;;
4650;SDS011;2338;49.602;8.722;2022-07-29T04:28:45;6.23;;;4.40;;
4650;SDS011;2338;49.602;8.722;2022-07-29T04:31:31;4.70;;;3.30;;
4650;SDS011;2338;49.602;8.722;2022-07-29T04:34:17;7.70;;;3.27;;
4650;SDS011;2338;49.602;8.722;2022-07-29T04:37:03;5.77;;;3.30;;
4650;SDS011;2338;49.602;8.722;2022-07-29T04:39:49;7.90;;;3.63;;
4650;SDS011;2338;49.602;8.722;2022-07-29T04:45:05;7.73;;;3.70;;
4650;SDS011;2338;49.602;8.722;2022-07-29T04:47:52;4.63;;;3.10;;
4650;SDS011;2338;49.602;8.722;2022-07-29T04:50:39;4.90;;;2.97;;
4650;SDS011;2338;49.602;8.722;2022-07-29T04:53:25;3.40;;;2.50;;
4650;SDS011;2338;49.602;8.722;2022-07-29T04:56:11;9.93;;;3.10;;
4650;SDS011;2338;49.602;8.722;2022-07-29T04:58:57;4.70;;;3.13;;
4650;SDS011;2338;49.602;8.722;2022-07-29T05:01:43;7.30;;;3.50;;
4650;SDS011;2338;49.602;8.722;2022-07-29T05:04:28;7.60;;;4.00;;
4650;SDS011;2338;49.602;8.722;2022-07-29T05:07:15;7.70;;;3.13;;
4650;SDS011;2338;49.602;8.722;2022-07-29T05:10:02;8.73;;;3.17;;
4650;SDS011;2338;49.602;8.722;2022-07-29T05:12:48;6.80;;;3.40;;
4650;SDS011;2338;49.602;8.722;2022-07-29T05:15:34;7.50;;;3.07;;
4650;SDS011;2338;49.602;8.722;2022-07-29T05:18:22;4.17;;;2.87;;
4650;SDS011;2338;49.602;8.722;2022-07-29T05:21:07;8.43;;;3.00;;
4650;SDS011;2338;49.602;8.722;2022-07-29T05:23:54;5.80;;;2.70;;
4650;SDS011;2338;49.602;8.722;2022-07-29T05:26:40;4.93;;;3.67;;
4650;SDS011;2338;49.602;8.722;2022-07-29T05:29:25;5.27;;;3.10;;
4650;SDS011;2338;49.602;8.722;2022-07-29T05:32:11;9.30;;;3.80;;
4650;SDS011;2338;49.602;8.722;2022-07-29T05:34:57;4.93;;;3.60;;
4650;SDS011;2338;49.602;8.722;2022-07-29T05:37:43;5.07;;;2.90;;
4650;SDS011;2338;49.602;8.722;2022-07-29T05:40:30;3.57;;;3.07;;
4650;SDS011;2338;49.602;8.722;2022-07-29T05:43:16;4.37;;;3.23;;
4650;SDS011;2338;49.602;8.722;2022-07-29T05:46:01;4.67;;;3.10;;
4650;SDS011;2338;49.602;8.722;2022-07-29T05:48:47;4.20;;;2.93;;
4650;SDS011;2338;49.602;8.722;2022-07-29T05:51:32;5.90;;;3.50;;
4650;SDS011;2338;49.602;8.722;2022-07-29T05:54:18;5.70;;;3.13;;
4650;SDS011;2338;49.602;8.722;2022-07-29T05:57:05;8.07;;;3.50;;
4650;SDS011;2338;49.602;8.722;2022-07-29T05:59:51;4.60;;;3.43;;
4650;SDS011;2338;49.602;8.722;2022-07-29T06:02:37;4.20;;;3.10;;
4650;SDS011;2338;49.602;8.722;2022-07-29T06:05:23;5.63;;;2.87;;
4650;SDS011;2338;49.602;8.722;2022-07-29T06:08:08;4.03;;;2.90;;
4650;SDS011;2338;49.602;8.722;2022-07-29T06:10:54;5.53;;;2.90;;
4650;SDS011;2338;49.602;8.722;2022-07-29T06:13:41;9.50;;;3.60;;
4650;SDS011;2338;49.602;8.722;2022-07-29T06:16:26;10.50;;;3.00;;
4650;SDS011;2338;49.602;8.722;2022-07-29T06:19:12;6.60;;;3.63;;
4650;SDS011;2338;49.602;8.722;2022-07-29T06:21:58;4.37;;;2.87;;
4650;SDS011;2338;49.602;8.722;2022-07-29T06:24:43;6.60;;;3.53;;
4650;SDS011;2338;49.602;8.722;2022-07-29T06:27:29;7.37;;;3.23;;
4650;SDS011;2338;49.602;8.722;2022-07-29T06:30:16;5.50;;;3.07;;
4650;SDS011;2338;49.602;8.722;2022-07-29T06:33:02;6.53;;;3.20;;
4650;SDS011;2338;49.602;8.722;2022-07-29T06:35:48;7.60;;;3.23;;
4650;SDS011;2338;49.602;8.722;2022-07-29T06:38:33;6.30;;;3.10;;
4650;SDS011;2338;49.602;8.722;2022-07-29T06:41:19;6.30;;;2.73;;
4650;SDS011;2338;49.602;8.722;2022-07-29T06:44:06;6.13;;;2.70;;
4650;SDS011;2338;49.602;8.722;2022-07-29T06:46:53;4.03;;;3.00;;
4650;SDS011;2338;49.602;8.722;2022-07-29T06:49:38;7.93;;;3.63;;
4650;SDS011;2338;49.602;8.722;2022-07-29T06:52:24;14.37;;;3.00;;
4650;SDS011;2338;49.602;8.722;2022-07-29T06:55:09;7.63;;;3.33;;
4650;SDS011;2338;49.602;8.722;2022-07-29T06:57:55;5.97;;;3.27;;
4650;SDS011;2338;49.602;8.722;2022-07-29T07:00:40;5.90;;;3.70;;
4650;SDS011;2338;49.602;8.722;2022-07-29T07:03:27;5.53;;;3.40;;
4650;SDS011;2338;49.602;8.722;2022-07-29T07:06:13;6.50;;;2.60;;
4650;SDS011;2338;49.602;8.722;2022-07-29T07:08:59;6.20;;;3.30;;
4650;SDS011;2338;49.602;8.722;2022-07-29T07:11:45;5.00;;;3.00;;
4650;SDS011;2338;49.602;8.722;2022-07-29T07:14:30;9.00;;;3.60;;
4650;SDS011;2338;49.602;8.722;2022-07-29T07:17:16;4.90;;;2.70;;
4650;SDS011;2338;49.602;8.722;2022-07-29T07:20:03;5.70;;;3.77;;
4650;SDS011;2338;49.602;8.722;2022-07-29T07:22:50;4.93;;;3.00;;
4650;SDS011;2338;49.602;8.722;2022-07-29T07:25:35;14.17;;;3.63;;
4650;SDS011;2338;49.602;8.722;2022-07-29T07:28:21;14.10;;;3.50;;
4650;SDS011;2338;49.602;8.722;2022-07-29T07:31:07;4.57;;;3.27;;
4650;SDS011;2338;49.602;8.722;2022-07-29T07:33:53;6.20;;;3.70;;
4650;SDS011;2338;49.602;8.722;2022-07-29T07:36:40;8.47;;;4.17;;
4650;SDS011;2338;49.602;8.722;2022-07-29T07:39:26;6.40;;;3.70;;
4650;SDS011;2338;49.602;8.722;2022-07-29T07:42:11;6.63;;;3.20;;
4650;SDS011;2338;49.602;8.722;2022-07-29T07:44:57;7.17;;;3.60;;
4650;SDS011;2338;49.602;8.722;2022-07-29T07:47:43;4.60;;;3.40;;
4650;SDS011;2338;49.602;8.722;2022-07-29T07:50:29;5.90;;;3.30;;
4650;SDS011;2338;49.602;8.722;2022-07-29T07:53:16;6.77;;;4.67;;
4650;SDS011;2338;49.602;8.722;2022-07-29T07:56:01;5.50;;;3.97;;
4650;SDS011;2338;49.602;8.722;2022-07-29T07:58:48;5.23;;;3.10;;
4650;SDS011;2338;49.602;8.722;2022-07-29T08:01:33;5.27;;;3.37;;
4650;SDS011;2338;49.602;8.722;2022-07-29T08:04:19;5.93;;;4.10;;
4650;SDS011;2338;49.602;8.722;2022-07-29T08:07:04;6.90;;;3.87;;
4650;SDS011;2338;49.602;8.722;2022-07-29T08:09:51;6.80;;;3.43;;
4650;SDS011;2338;49.602;8.722;2022-07-29T08:12:37;5.37;;;3.97;;
4650;SDS011;2338;49.602;8.722;2022-07-29T08:15:23;6.73;;;3.20;;
4650;SDS011;2338;49.602;8.722;2022-07-29T08:18:08;6.80;;;4.10;;
4650;SDS011;2338;49.602;8.722;2022-07-29T08:20:54;5.50;;;4.23;;
4650;SDS011;2338;49.602;8.722;2022-07-29T08:23:40;8.13;;;4.07;;
4650;SDS011;2338;49.602;8.722;2022-07-29T08:26:30;5.60;;;3.47;;
4650;SDS011;2338;49.602;8.722;2022-07-29T08:29:16;7.40;;;4.27;;
4650;SDS011;2338;49.602;8.722;2022-07-29T08:32:02;7.47;;;4.50;;
4650;SDS011;2338;49.602;8.722;2022-07-29T08:34:49;10.23;;;4.30;;
4650;SDS011;2338;49.602;8.722;2022-07-29T08:37:34;8.50;;;3.87;;
4650;SDS011;2338;49.602;8.722;2022-07-29T08:40:20;8.63;;;4.30;;
4650;SDS011;2338;49.602;8.722;2022-07-29T08:43:08;10.67;;;4.70;;
4650;SDS011;2338;49.602;8.722;2022-07-29T08:45:54;7.20;;;4.20;;
4650;SDS011;2338;49.602;8.722;2022-07-29T08:48:40;8.53;;;5.13;;
4650;SDS011;2338;49.602;8.722;2022-07-29T08:51:26;14.80;;;4.63;;
4650;SDS011;2338;49.602;8.722;2022-07-29T08:54:17;5.80;;;4.73;;
4650;SDS011;2338;49.602;8.722;2022-07-29T08:57:03;10.07;;;4.20;;
4650;SDS011;2338;49.602;8.722;2022-07-29T08:59:51;7.00;;;4.67;;
4650;SDS011;2338;49.602;8.722;2022-07-29T09:02:39;7.73;;;4.60;;
4650;SDS011;2338;49.602;8.722;2022-07-29T09:05:29;9.13;;;4.53;;
4650;SDS011;2338;49.602;8.722;2022-07-29T09:08:16;5.10;;;4.43;;
4650;SDS011;2338;49.602;8.722;2022-07-29T09:11:02;5.03;;;4.40;;
4650;SDS011;2338;49.602;8.722;2022-07-29T09:13:47;6.73;;;4.87;;
4650;SDS011;2338;49.602;8.722;2022-07-29T09:16:48;19.30;;;5.03;;
4650;SDS011;2338;49.602;8.722;2022-07-29T09:19:37;5.47;;;4.57;;
4650;SDS011;2338;49.602;8.722;2022-07-29T09:22:28;11.20;;;4.83;;
4650;SDS011;2338;49.602;8.722;2022-07-29T09:25:31;7.03;;;4.50;;
4650;SDS011;2338;49.602;8.722;2022-07-29T09:28:17;9.67;;;4.80;;
4650;SDS011;2338;49.602;8.722;2022-07-29T09:31:02;16.27;;;5.13;;
4650;SDS011;2338;49.602;8.722;2022-07-29T09:33:51;7.30;;;5.23;;
4650;SDS011;2338;49.602;8.722;2022-07-29T09:36:40;8.93;;;4.90;;
4650;SDS011;2338;49.602;8.722;2022-07-29T09:39:28;13.10;;;6.03;;
4650;SDS011;2338;49.602;8.722;2022-07-29T09:42:14;9.97;;;5.23;;
4650;SDS011;2338;49.602;8.722;2022-07-29T09:45:13;11.50;;;4.90;;
4650;SDS011;2338;49.602;8.722;2022-07-29T09:48:15;17.63;;;6.27;;
4650;SDS011;2338;49.602;8.722;2022-07-29T09:51:03;5.93;;;4.90;;
4650;SDS011;2338;49.602;8.722;2022-07-29T09:53:50;7.90;;;4.73;;
4650;SDS011;2338;49.602;8.722;2022-07-29T09:56:39;6.90;;;4.97;;
4650;SDS011;2338;49.602;8.722;2022-07-29T09:59:25;7.67;;;4.90;;
4650;SDS011;2338;49.602;8.722;2022-07-29T10:02:12;5.57;;;4.47;;
4650;SDS011;2338;49.602;8.722;2022-07-29T10:04:58;12.17;;;5.57;;
4650;SDS011;2338;49.602;8.722;2022-07-29T10:07:46;12.23;;;6.10;;
4650;SDS011;2338;49.602;8.722;2022-07-29T10:10:33;6.67;;;5.10;;
4650;SDS011;2338;49.602;8.722;2022-07-29T10:13:21;8.60;;;5.53;;
4650;SDS011;2338;49.602;8.722;2022-07-29T10:16:06;5.07;;;4.57;;
4650;SDS011;2338;49.602;8.722;2022-07-29T10:18:53;7.07;;;6.37;;
4650;SDS011;2338;49.602;8.722;2022-07-29T10:21:39;8.90;;;5.97;;
4650;SDS011;2338;49.602;8.722;2022-07-29T10:24:28;9.10;;;5.43;;
4650;SDS011;2338;49.602;8.722;2022-07-29T10:27:15;8.60;;;6.37;;
4650;SDS011;2338;49.602;8.722;2022-07-29T10:30:01;13.03;;;5.80;;
4650;SDS011;2338;49.602;8.722;2022-07-29T10:36:16;10.93;;;5.97;;
4650;SDS011;2338;49.602;8.722;2022-07-29T10:39:16;7.77;;;5.00;;
4650;SDS011;2338;49.602;8.722;2022-07-29T10:42:16;6.93;;;5.17;;
4650;SDS011;2338;49.602;8.722;2022-07-29T10:45:04;6.27;;;5.67;;
4650;SDS011;2338;49.602;8.722;2022-07-29T10:48:01;6.30;;;5.03;;
4650;SDS011;2338;49.602;8.722;2022-07-29T10:50:55;8.30;;;5.63;;
4650;SDS011;2338;49.602;8.722;2022-07-29T10:53:46;6.10;;;5.50;;
4650;SDS011;2338;49.602;8.722;2022-07-29T10:56:33;7.50;;;5.60;;
4650;SDS011;2338;49.602;8.722;2022-07-29T10:59:23;6.67;;;5.97;;
4650;SDS011;2338;49.602;8.722;2022-07-29T11:05:38;8.90;;;5.70;;
4650;SDS011;2338;49.602;8.722;2022-07-29T11:08:38;7.30;;;5.97;;
4650;SDS011;2338;49.602;8.722;2022-07-29T11:14:33;7.80;;;5.90;;
4650;SDS011;2338;49.602;8.722;2022-07-29T11:20:50;8.50;;;5.63;;
4650;SDS011;2338;49.602;8.722;2022-07-29T11:23:37;11.10;;;5.13;;
4650;SDS011;2338;49.602;8.722;2022-07-29T11:26:25;7.03;;;5.00;;
4650;SDS011;2338;49.602;8.722;2022-07-29T11:29:16;7.80;;;6.10;;
4650;SDS011;2338;49.602;8.722;2022-07-29T11:32:10;14.23;;;5.53;;
4650;SDS011;2338;49.602;8.722;2022-07-29T11:35:11;8.77;;;5.27;;
4650;SDS011;2338;49.602;8.722;2022-07-29T11:44:13;9.57;;;6.33;;
4650;SDS011;2338;49.602;8.722;2022-07-29T11:46:59;8.77;;;5.80;;
4650;SDS011;2338;49.602;8.722;2022-07-29T11:49:47;11.87;;;5.57;;
4650;SDS011;2338;49.602;8.722;2022-07-29T11:52:33;8.93;;;6.60;;
4650;SDS011;2338;49.602;8.722;2022-07-29T11:55:21;14.50;;;5.63;;
4650;SDS011;2338;49.602;8.722;2022-07-29T11:58:08;7.27;;;6.00;;
4650;SDS011;2338;49.602;8.722;2022-07-29T12:00:54;8.43;;;5.60;;
4650;SDS011;2338;49.602;8.722;2022-07-29T12:03:41;27.53;;;6.10;;
4650;SDS011;2338;49.602;8.722;2022-07-29T12:06:29;8.77;;;6.10;;
4650;SDS011;2338;49.602;8.722;2022-07-29T12:09:15;10.40;;;6.57;;
4650;SDS011;2338;49.602;8.722;2022-07-29T12:12:01;7.90;;;6.67;;
4650;SDS011;2338;49.602;8.722;2022-07-29T12:14:47;12.40;;;6.77;;
4650;SDS011;2338;49.602;8.722;2022-07-29T12:17:34;10.00;;;6.30;;
4650;SDS011;2338;49.602;8.722;2022-07-29T12:20:24;14.40;;;6.73;;
4650;SDS011;2338;49.602;8.722;2022-07-29T12:23:13;7.33;;;5.37;;
4650;SDS011;2338;49.602;8.722;2022-07-29T12:25:59;10.60;;;6.37;;
4650;SDS011;2338;49.602;8.722;2022-07-29T12:28:48;10.30;;;6.40;;
4650;SDS011;2338;49.602;8.722;2022-07-29T12:31:34;7.80;;;5.80;;
4650;SDS011;2338;49.602;8.722;2022-07-29T12:34:20;12.70;;;5.30;;
4650;SDS011;2338;49.602;8.722;2022-07-29T12:37:07;8.30;;;5.80;;
4650;SDS011;2338;49.602;8.722;2022-07-29T12:39:55;9.53;;;5.60;;
4650;SDS011;2338;49.602;8.722;2022-07-29T12:42:41;7.83;;;5.30;;
4650;SDS011;2338;49.602;8.722;2022-07-29T12:45:50;6.43;;;4.60;;
4650;SDS011;2338;49.602;8.722;2022-07-29T12:48:37;9.07;;;5.10;;
4650;SDS011;2338;49.602;8.722;2022-07-29T12:51:31;7.83;;;4.83;;
4650;SDS011;2338;49.602;8.722;2022-07-29T12:54:18;7.40;;;4.90;;
4650;SDS011;2338;49.602;8.722;2022-07-29T12:57:05;9.60;;;4.93;;
4650;SDS011;2338;49.602;8.722;2022-07-29T13:00:02;11.43;;;5.50;;
4650;SDS011;2338;49.602;8.722;2022-07-29T13:02:54;7.30;;;4.90;;
4650;SDS011;2338;49.602;8.722;2022-07-29T13:05:41;10.50;;;4.53;;
4650;SDS011;2338;49.602;8.722;2022-07-29T13:08:28;11.90;;;4.90;;
4650;SDS011;2338;49.602;8.722;2022-07-29T13:11:27;9.10;;;5.10;;
4650;SDS011;2338;49.602;8.722;2022-07-29T13:14:29;7.57;;;4.43;;
4650;SDS011;2338;49.602;8.722;2022-07-29T13:17:16;7.13;;;5.23;;
4650;SDS011;2338;49.602;8.722;2022-07-29T13:20:05;8.77;;;4.50;;
4650;SDS011;2338;49.602;8.722;2022-07-29T13:22:56;7.03;;;4.57;;
4650;SDS011;2338;49.602;8.722;2022-07-29T13:25:42;17.13;;;5.20;;
4650;SDS011;2338;49.602;8.722;2022-07-29T13:28:28;10.30;;;5.70;;
4650;SDS011;2338;49.602;8.722;2022-07-29T13:31:15;10.93;;;5.60;;
4650;SDS011;2338;49.602;8.722;2022-07-29T13:34:00;11.83;;;5.57;;
4650;SDS011;2338;49.602;8.722;2022-07-29T13:36:46;5.30;;;4.33;;
4650;SDS011;2338;49.602;8.722;2022-07-29T13:39:31;9.30;;;5.57;;
4650;SDS011;2338;49.602;8.722;2022-07-29T13:42:17;8.83;;;4.87;;
4650;SDS011;2338;49.602;8.722;2022-07-29T13:45:03;14.40;;;4.80;;
4650;SDS011;2338;49.602;8.722;2022-07-29T13:47:51;7.43;;;5.43;;
4650;SDS011;2338;49.602;8.722;2022-07-29T13:50:37;11.80;;;5.03;;
4650;SDS011;2338;49.602;8.722;2022-07-29T13:53:23;6.60;;;4.90;;
4650;SDS011;2338;49.602;8.722;2022-07-29T13:56:08;5.63;;;4.03;;
4650;SDS011;2338;49.602;8.722;2022-07-29T13:58:54;5.87;;;4.10;;
4650;SDS011;2338;49.602;8.722;2022-07-29T14:01:40;5.57;;;3.30;;
4650;SDS011;2338;49.602;8.722;2022-07-29T14:04:28;6.27;;;4.43;;
4650;SDS011;2338;49.602;8.722;2022-07-29T14:07:13;6.50;;;4.00;;
4650;SDS011;2338;49.602;8.722;2022-07-29T14:09:59;8.50;;;4.27;;
4650;SDS011;2338;49.602;8.722;2022-07-29T14:12:44;5.47;;;3.17;;
4650;SDS011;2338;49.602;8.722;2022-07-29T14:15:30;5.83;;;3.63;;
4650;SDS011;2338;49.602;8.722;2022-07-29T14:18:15;9.03;;;3.67;;
4650;SDS011;2338;49.602;8.722;2022-07-29T14:21:03;5.90;;;4.00;;
4650;SDS011;2338;49.602;8.722;2022-07-29T14:23:48;8.13;;;4.03;;
4650;SDS011;2338;49.602;8.722;2022-07-29T14:26:35;6.37;;;3.80;;
4650;SDS011;2338;49.602;8.722;2022-07-29T14:29:21;6.27;;;3.80;;
4650;SDS011;2338;49.602;8.722;2022-07-29T14:32:07;7.90;;;4.07;;
4650;SDS011;2338;49.602;8.722;2022-07-29T14:34:54;6.27;;;3.80;;
4650;SDS011;2338;49.602;8.722;2022-07-29T14:37:40;6.10;;;4.50;;
4650;SDS011;2338;49.602;8.722;2022-07-29T14:40:27;7.10;;;4.03;;
4650;SDS011;2338;49.602;8.722;2022-07-29T14:43:12;8.23;;;4.27;;
4650;SDS011;2338;49.602;8.722;2022-07-29T14:45:58;4.87;;;3.60;;
4650;SDS011;2338;49.602;8.722;2022-07-29T14:48:44;9.47;;;4.17;;
4650;SDS011;2338;49.602;8.722;2022-07-29T14:51:29;7.07;;;4.37;;
4650;SDS011;2338;49.602;8.722;2022-07-29T14:54:16;8.63;;;3.83;;
4650;SDS011;2338;49.602;8.722;2022-07-29T14:57:02;7.70;;;4.00;;
4650;SDS011;2338;49.602;8.722;2022-07-29T14:59:48;10.13;;;4.30;;
4650;SDS011;2338;49.602;8.722;2022-07-29T15:02:34;4.80;;;4.23;;
4650;SDS011;2338;49.602;8.722;2022-07-29T15:05:20;5.60;;;4.07;;
4650;SDS011;2338;49.602;8.722;2022-07-29T15:08:05;6.23;;;4.97;;
4650;SDS011;2338;49.602;8.722;2022-07-29T15:10:53;7.27;;;4.90;;
4650;SDS011;2338;49.602;8.722;2022-07-29T15:13:41;9.43;;;4.33;;
4650;SDS011;2338;49.602;8.722;2022-07-29T15:16:27;4.83;;;3.70;;
4650;SDS011;2338;49.602;8.722;2022-07-29T15:19:12;8.20;;;4.00;;
4650;SDS011;2338;49.602;8.722;2022-07-29T15:21:58;4.90;;;4.20;;
4650;SDS011;2338;49.602;8.722;2022-07-29T15:24:44;5.53;;;4.13;;
4650;SDS011;2338;49.602;8.722;2022-07-29T15:27:31;5.90;;;4.13;;
4650;SDS011;2338;49.602;8.722;2022-07-29T15:30:17;4.73;;;3.90;;
4650;SDS011;2338;49.602;8.722;2022-07-29T15:33:02;9.83;;;4.30;;
4650;SDS011;2338;49.602;8.722;2022-07-29T15:35:48;6.47;;;4.03;;
4650;SDS011;2338;49.602;8.722;2022-07-29T15:38:34;10.00;;;3.73;;
4650;SDS011;2338;49.602;8.722;2022-07-29T15:41:19;9.00;;;4.10;;
4650;SDS011;2338;49.602;8.722;2022-07-29T15:44:07;13.80;;;4.60;;
4650;SDS011;2338;49.602;8.722;2022-07-29T15:46:53;8.70;;;4.30;;
4650;SDS011;2338;49.602;8.722;2022-07-29T15:49:48;5.37;;;3.70;;
4650;SDS011;2338;49.602;8.722;2022-07-29T15:52:34;7.43;;;4.20;;
4650;SDS011;2338;49.602;8.722;2022-07-29T15:55:19;7.40;;;4.20;;
4650;SDS011;2338;49.602;8.722;2022-07-29T15:58:07;11.73;;;3.83;;
4650;SDS011;2338;49.602;8.722;2022-07-29T16:00:53;9.27;;;3.80;;
4650;SDS011;2338;49.602;8.722;2022-07-29T16:03:39;6.53;;;3.73;;
4650;SDS011;2338;49.602;8.722;2022-07-29T16:06:25;7.67;;;4.43;;
4650;SDS011;2338;49.602;8.722;2022-07-29T16:09:10;8.97;;;3.60;;
4650;SDS011;2338;49.602;8.722;2022-07-29T16:11:56;4.30;;;3.43;;
4650;SDS011;2338;49.602;8.722;2022-07-29T16:14:42;5.43;;;4.00;;
4650;SDS011;2338;49.602;8.722;2022-07-29T16:17:29;6.03;;;3.60;;
4650;SDS011;2338;49.602;8.722;2022-07-29T16:20:15;9.40;;;5.03;;
4650;SDS011;2338;49.602;8.722;2022-07-29T16:23:01;11.60;;;4.80;;
4650;SDS011;2338;49.602;8.722;2022-07-29T16:25:47;9.63;;;5.43;;
4650;SDS011;2338;49.602;8.722;2022-07-29T16:28:33;8.50;;;5.17;;
4650;SDS011;2338;49.602;8.722;2022-07-29T16:31:19;8.90;;;4.80;;
4650;SDS011;2338;49.602;8.722;2022-07-29T16:34:07;11.83;;;4.90;;
4650;SDS011;2338;49.602;8.722;2022-07-29T16:36:53;6.20;;;4.63;;
4650;SDS011;2338;49.602;8.722;2022-07-29T16:39:38;10.27;;;4.60;;
4650;SDS011;2338;49.602;8.722;2022-07-29T16:42:24;6.87;;;5.27;;
4650;SDS011;2338;49.602;8.722;2022-07-29T16:45:09;11.47;;;6.40;;
4650;SDS011;2338;49.602;8.722;2022-07-29T16:47:55;10.27;;;6.17;;
4650;SDS011;2338;49.602;8.722;2022-07-29T16:50:42;7.80;;;5.57;;
4650;SDS011;2338;49.602;8.722;2022-07-29T16:53:27;10.30;;;5.93;;
4650;SDS011;2338;49.602;8.722;2022-07-29T16:56:13;11.10;;;6.37;;
4650;SDS011;2338;49.602;8.722;2022-07-29T16:58:59;12.40;;;6.70;;
4650;SDS011;2338;49.602;8.722;2022-07-29T17:01:45;11.93;;;6.00;;
4650;SDS011;2338;49.602;8.722;2022-07-29T17:04:31;10.83;;;6.80;;
4650;SDS011;2338;49.602;8.722;2022-07-29T17:07:19;11.87;;;7.20;;
4650;SDS011;2338;49.602;8.722;2022-07-29T17:10:05;7.73;;;6.23;;
4650;SDS011;2338;49.602;8.722;2022-07-29T17:12:51;10.53;;;6.40;;
4650;SDS011;2338;49.602;8.722;2022-07-29T17:15:37;9.80;;;6.77;;
4650;SDS011;2338;49.602;8.722;2022-07-29T17:18:24;11.07;;;6.77;;
4650;SDS011;2338;49.602;8.722;2022-07-29T17:21:11;8.90;;;6.77;;
4650;SDS011;2338;49.602;8.722;2022-07-29T17:23:57;10.00;;;7.20;;
4650;SDS011;2338;49.602;8.722;2022-07-29T17:26:43;8.40;;;7.10;;
4650;SDS011;2338;49.602;8.722;2022-07-29T17:29:29;11.73;;;7.37;;
4650;SDS011;2338;49.602;8.722;2022-07-29T17:32:15;7.63;;;6.47;;
4650;SDS011;2338;49.602;8.722;2022-07-29T17:35:01;9.70;;;6.80;;
4650;SDS011;2338;49.602;8.722;2022-07-29T17:38:06;11.23;;;6.73;;
4650;SDS011;2338;49.602;8.722;2022-07-29T17:40:53;9.70;;;6.40;;
4650;SDS011;2338;49.602;8.722;2022-07-29T17:43:39;6.87;;;6.10;;